Opolis, Kansas
Current Conditions -  °F | °C
As of 8:15 PM on Thursday 18 Dec 2014 (Local Time) from KPTS Reporting Station
Overcast Overcast  
Wind Chill: 33°   Ceiling: 900
Heat Index: 37°   Visibility: 10mi
Dew Point: 37°   Wind: 5mph
Humidity: 100%   Direction: 20°NNE
Pressure: 30.22"   Gusts: NA
Location:  37.34°N, 94.62°W
Report Text: KPTS 190215Z AUTO 02004KT 10SM BKN009 OVC019 03/03 A3022 RMK AO2 T00270028
Loading
Personal Weather Stations






























Interactive Weather Map New forecast layout! Learn more

10-Day Weather Forecast

Advertisements
Track Severe Weather on mobile